Time;durP1;ratioP1;P1;durP2;ratioP2;P2;SDS_P1;SDS_P2;PMS_P1;PMS_P2;Temp;Humidity;BMP_temperature;BMP_pressure;BME280_temperature;BME280_humidity;BME280_pressure;Samples;Min_cycle;Max_cycle;Signal;HPM_P1;HPM_P2
2021/07/25 00:00:56;;;;;;;13.70;7.03;;;;;;;16.40;100.00;96177.13;5003251;28;20088;-61
2021/07/25 00:03:21;;;;;;;14.48;6.88;;;;;;;16.27;100.00;96186.38;4997081;28;20053;-62
2021/07/25 00:05:47;;;;;;;16.63;7.80;;;;;;;16.15;100.00;96182.19;5002083;28;20048;-62
2021/07/25 00:08:12;;;;;;;17.38;7.88;;;;;;;16.20;100.00;96190.03;4995557;28;20040;-62
2021/07/25 00:10:48;;;;;;;18.38;8.55;;;;;;;16.36;100.00;96208.75;5002619;28;20092;-62
2021/07/25 00:13:16;;;;;;;14.07;7.38;;;;;;;16.44;100.00;96226.81;4998690;28;20041;-61
2021/07/25 00:15:43;;;;;;;14.07;7.40;;;;;;;16.48;100.00;96224.78;5020331;28;20060;-60
2021/07/25 00:18:08;;;;;;;15.70;7.88;;;;;;;16.44;100.00;96232.34;5017566;28;20110;-61
2021/07/25 00:20:34;;;;;;;13.30;7.63;;;;;;;16.57;100.00;96240.84;5023043;28;20041;-61
2021/07/25 00:23:01;;;;;;;14.63;6.90;;;;;;;16.76;100.00;96253.19;5027240;28;20084;-62
2021/07/25 00:25:27;;;;;;;8.85;6.00;;;;;;;16.87;100.00;96267.69;5025510;28;20919;-61
2021/07/25 00:27:54;;;;;;;12.75;6.40;;;;;;;16.94;100.00;96275.88;5025992;28;20073;-61
2021/07/25 00:30:21;;;;;;;13.82;6.15;;;;;;;16.77;100.00;96285.97;5017205;28;20103;-61
2021/07/25 00:32:47;;;;;;;12.35;6.10;;;;;;;16.75;100.00;96277.31;5020150;28;20064;-61
2021/07/25 00:35:14;;;;;;;13.57;6.75;;;;;;;16.89;100.00;96292.13;5016680;28;20045;-61
2021/07/25 00:37:43;;;;;;;8.98;5.75;;;;;;;17.10;100.00;96299.34;5021801;28;20072;-61
2021/07/25 00:40:14;;;;;;;13.38;5.80;;;;;;;17.39;100.00;96307.94;5031581;28;20041;-61
2021/07/25 00:42:40;;;;;;;11.98;5.38;;;;;;;17.48;100.00;96301.88;5021550;28;20061;-62
2021/07/25 00:45:06;;;;;;;12.50;6.38;;;;;;;17.37;100.00;96305.59;5016322;28;20038;-63
2021/07/25 00:47:33;;;;;;;12.18;5.25;;;;;;;17.19;100.00;96296.81;5021184;28;20049;-61
2021/07/25 00:49:58;;;;;;;15.15;6.78;;;;;;;16.98;100.00;96289.66;5021654;28;20037;-60
2021/07/25 00:52:23;;;;;;;12.98;6.03;;;;;;;16.85;100.00;96280.34;5013692;28;20686;-63
2021/07/25 00:54:49;;;;;;;16.95;6.78;;;;;;;16.49;100.00;96267.78;5020676;28;20042;-61
2021/07/25 00:57:14;;;;;;;15.55;6.72;;;;;;;16.44;100.00;96279.34;5016666;28;20040;-62
2021/07/25 00:59:40;;;;;;;12.55;7.45;;;;;;;16.43;100.00;96263.94;5025282;28;20041;-61
2021/07/25 01:02:05;;;;;;;16.52;8.32;;;;;;;16.25;100.00;96233.78;5032398;28;20744;-63
2021/07/25 01:04:48;;;;;;;21.17;9.63;;;;;;;16.16;100.00;96211.41;5014547;28;20049;-62
2021/07/25 01:07:20;;;;;;;19.70;9.45;;;;;;;16.12;100.00;96196.88;4997488;28;20512;-60
2021/07/25 01:09:55;;;;;;;19.55;8.27;;;;;;;16.11;100.00;96182.25;5002096;28;20038;-61
2021/07/25 01:12:24;;;;;;;14.77;8.02;;;;;;;16.08;100.00;96174.00;4997189;28;20045;-62
2021/07/25 01:14:52;;;;;;;19.42;8.13;;;;;;;16.08;100.00;96204.41;5001593;28;20491;-62
2021/07/25 01:17:27;;;;;;;12.15;7.50;;;;;;;16.26;100.00;96229.81;4996779;28;20088;-63
2021/07/25 01:19:54;;;;;;;11.38;6.55;;;;;;;16.36;100.00;96255.75;4999862;28;20129;-63
2021/07/25 01:22:20;;;;;;;11.98;6.90;;;;;;;16.49;100.00;96272.53;4996642;28;20049;-61
2021/07/25 01:24:45;;;;;;;11.63;6.20;;;;;;;16.66;100.00;96265.22;5001368;28;20091;-63
2021/07/25 01:27:27;;;;;;;10.50;6.28;;;;;;;16.50;100.00;96246.47;4997828;28;20038;-64
2021/07/25 01:29:55;;;;;;;11.65;5.93;;;;;;;16.39;100.00;96228.06;5013116;28;20107;-63
2021/07/25 01:32:21;;;;;;;11.98;5.68;;;;;;;16.39;100.00;96250.16;5016011;28;20042;-63
2021/07/25 01:34:49;;;;;;;8.93;4.95;;;;;;;16.63;100.00;96253.75;5022592;28;20045;-63
2021/07/25 01:37:15;;;;;;;10.25;4.45;;;;;;;16.61;100.00;96238.81;4999695;28;20046;-60
2021/07/25 01:39:41;;;;;;;9.98;5.13;;;;;;;16.49;100.00;96220.78;5001442;28;20129;-61
2021/07/25 01:42:07;;;;;;;8.27;4.70;;;;;;;16.50;100.00;96210.53;4996629;28;20085;-61
2021/07/25 01:44:32;;;;;;;10.63;4.85;;;;;;;16.41;100.00;96220.13;5000403;28;20077;-60
2021/07/25 01:46:58;;;;;;;14.00;4.78;;;;;;;16.30;100.00;96229.78;5001024;28;20038;-61
2021/07/25 01:49:24;;;;;;;12.13;4.28;;;;;;;16.14;100.00;96242.22;4995337;28;20231;-62
2021/07/25 01:51:49;;;;;;;8.73;4.68;;;;;;;16.00;100.00;96247.91;5020351;28;20057;-61
2021/07/25 01:54:14;;;;;;;10.45;5.60;;;;;;;15.95;100.00;96251.13;5014333;28;20394;-61
2021/07/25 01:56:40;;;;;;;10.40;5.13;;;;;;;15.92;100.00;96263.78;5038966;28;20052;-61
2021/07/25 01:59:05;;;;;;;8.63;4.97;;;;;;;15.92;100.00;96274.03;5019668;28;20133;-61
2021/07/25 02:01:31;;;;;;;11.63;4.97;;;;;;;15.95;100.00;96268.47;5020981;28;20045;-63
2021/07/25 02:03:56;;;;;;;11.02;5.28;;;;;;;16.09;100.00;96266.75;5025625;28;20072;-61
2021/07/25 02:06:22;;;;;;;9.23;4.93;;;;;;;16.25;100.00;96281.53;5020488;28;21293;-62
2021/07/25 02:08:48;;;;;;;11.25;5.22;;;;;;;16.27;100.00;96274.81;5025150;28;20041;-63
2021/07/25 02:11:13;;;;;;;9.95;5.28;;;;;;;16.28;100.00;96270.84;5017733;28;20386;-62
2021/07/25 02:13:39;;;;;;;10.45;5.90;;;;;;;16.33;100.00;96271.19;5019739;28;20037;-65
2021/07/25 02:16:04;;;;;;;9.90;5.28;;;;;;;16.36;100.00;96264.03;5001645;28;20049;-65
2021/07/25 02:18:30;;;;;;;10.73;5.10;;;;;;;16.48;100.00;96262.69;5003404;28;20050;-61
2021/07/25 02:20:55;;;;;;;10.55;4.95;;;;;;;16.33;100.00;96251.84;5005243;28;20062;-62
2021/07/25 02:23:21;;;;;;;9.75;4.50;;;;;;;16.18;100.00;96253.22;4997517;28;21018;-62
2021/07/25 02:25:46;;;;;;;12.43;5.85;;;;;;;16.10;100.00;96257.25;5005529;28;20034;-61
2021/07/25 02:28:12;;;;;;;14.93;5.50;;;;;;;16.09;100.00;96258.47;5015864;28;20048;-63
2021/07/25 02:30:37;;;;;;;13.63;5.60;;;;;;;16.06;100.00;96246.25;5004764;28;20037;-62
2021/07/25 02:33:04;;;;;;;10.13;5.65;;;;;;;15.97;100.00;96248.72;4997553;28;20038;-64
2021/07/25 02:35:30;;;;;;;14.50;5.65;;;;;;;15.94;100.00;96247.59;5002714;28;20125;-62
2021/07/25 02:37:56;;;;;;;13.20;6.03;;;;;;;15.94;100.00;96250.34;5002893;28;20148;-62
2021/07/25 02:40:21;;;;;;;16.42;7.28;;;;;;;15.90;100.00;96248.81;4998604;28;21261;-62
2021/07/25 02:42:47;;;;;;;13.18;6.32;;;;;;;15.86;100.00;96246.09;5002077;28;20196;-61
2021/07/25 02:45:13;;;;;;;14.07;6.47;;;;;;;15.86;100.00;96244.13;5000199;28;20041;-62
2021/07/25 02:47:38;;;;;;;19.00;6.95;;;;;;;15.89;100.00;96238.97;5020508;28;20057;-62
2021/07/25 02:50:05;;;;;;;13.30;6.50;;;;;;;16.04;100.00;96245.88;5001611;28;20407;-63
2021/07/25 02:52:30;;;;;;;15.25;6.70;;;;;;;16.27;100.00;96258.22;5004147;28;20045;-60
2021/07/25 02:54:56;;;;;;;11.88;6.97;;;;;;;16.25;100.00;96253.13;5018832;28;20041;-63
2021/07/25 02:57:21;;;;;;;12.68;6.40;;;;;;;16.29;100.00;96242.00;4999458;28;20045;-63
2021/07/25 02:59:47;;;;;;;9.77;6.20;;;;;;;16.08;100.00;96246.63;5019789;28;20085;-61
2021/07/25 03:02:12;;;;;;;10.40;6.07;;;;;;;15.98;100.00;96248.31;4998706;28;20438;-61
2021/07/25 03:04:37;;;;;;;17.45;6.95;;;;;;;15.93;100.00;96240.47;5003670;28;20491;-63
2021/07/25 03:07:03;;;;;;;15.90;7.53;;;;;;;15.85;100.00;96230.72;5007318;28;20037;-61
2021/07/25 03:09:28;;;;;;;19.40;8.63;;;;;;;15.84;100.00;96240.19;5008737;28;20042;-62
2021/07/25 03:11:54;;;;;;;13.82;7.35;;;;;;;15.83;100.00;96241.41;5005475;28;20450;-60
2021/07/25 03:14:19;;;;;;;15.82;7.57;;;;;;;15.83;100.00;96236.66;5008896;28;20099;-63
2021/07/25 03:16:46;;;;;;;21.90;8.48;;;;;;;15.81;100.00;96228.00;5023274;28;20075;-61
2021/07/25 03:19:12;;;;;;;15.27;7.40;;;;;;;15.99;100.00;96227.00;5018751;28;20041;-63
2021/07/25 03:21:38;;;;;;;12.88;6.85;;;;;;;16.20;100.00;96225.94;5024381;28;20053;-62
2021/07/25 03:24:03;;;;;;;11.68;7.05;;;;;;;16.15;100.00;96224.44;5020383;28;20045;-60
2021/07/25 03:26:29;;;;;;;11.77;5.80;;;;;;;16.11;100.00;96220.94;5022416;28;20045;-63
2021/07/25 03:28:55;;;;;;;12.55;5.93;;;;;;;16.31;100.00;96217.50;5021631;28;20104;-61
2021/07/25 03:31:20;;;;;;;12.57;6.30;;;;;;;16.41;100.00;96203.53;5018500;28;20033;-61
2021/07/25 03:33:46;;;;;;;9.18;6.13;;;;;;;16.15;100.00;96196.81;5025169;28;20038;-61
2021/07/25 03:36:11;;;;;;;11.98;6.43;;;;;;;16.01;100.00;96197.00;5019882;28;20033;-64
2021/07/25 03:38:37;;;;;;;15.45;7.32;;;;;;;15.97;100.00;96194.28;5031747;28;20061;-63
2021/07/25 03:41:03;;;;;;;13.10;6.35;;;;;;;16.03;100.00;96191.84;5030673;28;20046;-60
2021/07/25 03:43:30;;;;;;;12.98;5.72;;;;;;;16.13;100.00;96201.19;5030597;28;20049;-62
2021/07/25 03:45:56;;;;;;;12.02;6.38;;;;;;;16.19;100.00;96200.31;5024093;28;20049;-62
2021/07/25 03:48:22;;;;;;;11.05;5.93;;;;;;;16.34;100.00;96211.16;5017710;28;22590;-62
2021/07/25 03:50:47;;;;;;;7.88;5.47;;;;;;;16.46;100.00;96207.81;5022845;28;20038;-61
2021/07/25 03:53:13;;;;;;;11.65;5.32;;;;;;;16.29;100.00;96193.06;5017863;28;20072;-62
2021/07/25 03:55:43;;;;;;;11.15;4.90;;;;;;;16.07;100.00;96189.03;5021236;28;20044;-61
2021/07/25 03:58:09;;;;;;;8.50;5.05;;;;;;;16.09;100.00;96176.38;5016500;28;20126;-61
2021/07/25 04:00:34;;;;;;;12.98;5.35;;;;;;;16.29;100.00;96178.47;5022526;28;20482;-61
2021/07/25 04:02:59;;;;;;;10.43;5.72;;;;;;;16.41;100.00;96180.66;5021980;28;20041;-62
2021/07/25 04:05:25;;;;;;;9.25;5.18;;;;;;;16.55;100.00;96183.19;5018144;28;20045;-62
2021/07/25 04:07:51;;;;;;;9.90;5.50;;;;;;;16.50;100.00;96177.38;5016909;28;20490;-62
2021/07/25 04:10:16;;;;;;;11.48;5.45;;;;;;;16.40;100.00;96170.78;5015783;28;20041;-62
2021/07/25 04:12:41;;;;;;;8.32;4.90;;;;;;;16.32;100.00;96167.34;5015936;28;20066;-65
2021/07/25 04:15:08;;;;;;;9.18;5.45;;;;;;;16.31;100.00;96173.28;5012283;28;20136;-61
2021/07/25 04:17:36;;;;;;;15.90;6.13;;;;;;;16.27;100.00;96170.59;5022030;28;20055;-63
2021/07/25 04:20:03;;;;;;;12.10;5.75;;;;;;;16.32;100.00;96166.59;5024935;28;20521;-62
2021/07/25 04:22:36;;;;;;;8.82;4.75;;;;;;;16.44;100.00;96155.72;5014838;28;20089;-63
2021/07/25 04:25:03;;;;;;;13.45;5.45;;;;;;;16.15;100.00;96143.53;5012316;28;20502;-63
2021/07/25 04:27:28;;;;;;;9.85;5.28;;;;;;;16.11;100.00;96146.34;5019060;28;20053;-63
2021/07/25 04:29:55;;;;;;;8.80;5.68;;;;;;;16.17;100.00;96147.44;5002112;28;20044;-63
2021/07/25 04:32:21;;;;;;;8.90;5.25;;;;;;;16.28;100.00;96154.78;4999878;28;21799;-63
2021/07/25 04:34:47;;;;;;;7.75;5.40;;;;;;;16.35;100.00;96146.38;5014000;28;20201;-63
2021/07/25 04:37:22;;;;;;;10.70;6.18;;;;;;;16.23;100.00;96156.03;5012988;28;20056;-62
2021/07/25 04:39:48;;;;;;;15.63;5.75;;;;;;;16.08;100.00;96147.19;5022268;28;20432;-63
2021/07/25 04:42:17;;;;;;;15.20;6.45;;;;;;;16.13;100.00;96146.69;5017264;28;20072;-64
2021/07/25 04:44:49;;;;;;;14.35;6.50;;;;;;;16.14;100.00;96148.28;5021666;28;20145;-63
2021/07/25 04:47:19;;;;;;;11.30;5.72;;;;;;;16.23;100.00;96145.00;5015937;28;20128;-62
2021/07/25 04:50:07;;;;;;;13.65;6.30;;;;;;;16.34;100.00;96151.13;5013123;28;20046;-63
2021/07/25 04:52:40;;;;;;;10.40;6.28;;;;;;;16.69;100.00;96164.81;5016225;28;20513;-63
2021/07/25 04:55:08;;;;;;;7.82;5.03;;;;;;;16.71;100.00;96160.44;5004900;28;20072;-61
2021/07/25 04:57:41;;;;;;;8.23;5.20;;;;;;;16.91;100.00;96163.28;5001983;28;20053;-64
2021/07/25 05:00:09;;;;;;;12.73;4.95;;;;;;;17.37;100.00;96172.72;4994347;28;20129;-61
2021/07/25 05:02:38;;;;;;;9.32;4.90;;;;;;;17.54;100.00;96168.06;5014746;28;20072;-63
2021/07/25 05:05:04;;;;;;;7.57;4.57;;;;;;;17.36;100.00;96165.66;5011741;28;20047;-62
2021/07/25 05:07:37;;;;;;;8.23;4.90;;;;;;;17.04;100.00;96168.22;5021049;28;20102;-63
2021/07/25 05:10:03;;;;;;;9.32;4.78;;;;;;;16.90;100.00;96167.25;5028297;28;20041;-63
2021/07/25 05:12:52;;;;;;;7.35;4.35;;;;;;;17.05;100.00;96169.78;5039716;28;20037;-64
2021/07/25 05:15:24;;;;;;;8.55;5.75;;;;;;;17.52;100.00;96169.69;5002044;28;20042;-62
2021/07/25 05:17:49;;;;;;;13.23;5.55;;;;;;;17.53;100.00;96165.72;5012093;28;20042;-62
2021/07/25 05:20:15;;;;;;;11.00;5.40;;;;;;;17.87;100.00;96178.53;5000602;28;20042;-62
2021/07/25 05:23:05;;;;;;;9.63;4.20;;;;;;;18.18;100.00;96178.28;5001585;28;20816;-64
2021/07/25 05:25:31;;;;;;;8.57;3.75;;;;;;;18.41;100.00;96177.38;5012151;28;20440;-64
2021/07/25 05:28:01;;;;;;;7.97;4.20;;;;;;;18.66;100.00;96177.56;5021011;28;20037;-63
2021/07/25 05:30:27;;;;;;;;;;;;;;;18.83;99.99;96178.34;5014708;28;20041;-64
2021/07/25 05:32:52;;;;;;;6.38;3.50;;;;;;;18.89;100.00;96186.97;5019841;28;19917;-64
2021/07/25 05:35:18;;;;;;;8.55;3.97;;;;;;;18.80;100.00;96179.22;5008420;28;20044;-64
2021/07/25 05:37:44;;;;;;;7.68;3.42;;;;;;;18.80;100.00;96186.72;5022057;28;20459;-62
2021/07/25 05:40:11;;;;;;;6.75;4.43;;;;;;;18.82;100.00;96187.91;5019241;28;20512;-63
2021/07/25 05:42:38;;;;;;;6.70;4.00;;;;;;;18.83;100.00;96192.22;5041364;28;20128;-62
2021/07/25 05:45:05;;;;;;;5.85;4.10;;;;;;;18.77;100.00;96190.41;5029317;28;20059;-61
2021/07/25 05:47:30;;;;;;;6.63;3.92;;;;;;;18.81;100.00;96189.09;5035517;28;20037;-62
2021/07/25 05:49:55;;;;;;;9.63;4.45;;;;;;;18.84;100.00;96187.47;5036141;28;20045;-62
2021/07/25 05:52:21;;;;;;;10.73;4.10;;;;;;;18.78;100.00;96189.16;5009682;28;21013;-62
2021/07/25 05:54:46;;;;;;;8.52;4.13;;;;;;;18.68;100.00;96197.31;5020226;28;20048;-62
2021/07/25 05:57:11;;;;;;;6.28;3.33;;;;;;;18.69;100.00;96187.00;5014552;28;20398;-62
2021/07/25 05:59:37;;;;;;;7.82;3.03;;;;;;;18.79;100.00;96176.88;5018382;28;20123;-64
2021/07/25 06:02:03;;;;;;;6.72;3.10;;;;;;;18.90;100.00;96169.09;5008717;28;20038;-63
2021/07/25 06:04:29;;;;;;;5.53;3.22;;;;;;;18.79;100.00;96152.69;4999473;28;20044;-63
2021/07/25 06:06:56;;;;;;;7.88;2.97;;;;;;;18.88;100.00;96163.19;5001194;28;20042;-66
2021/07/25 06:09:22;;;;;;;4.90;2.95;;;;;;;19.04;99.95;96157.63;4995580;28;20068;-62
2021/07/25 06:11:48;;;;;;;5.95;3.03;;;;;;;18.91;100.00;96149.22;5013622;28;20391;-63
2021/07/25 06:14:13;;;;;;;15.30;9.73;;;;;;;18.99;100.00;96132.41;5027808;28;20104;-61
2021/07/25 06:16:39;;;;;;;13.52;3.40;;;;;;;19.09;100.00;96123.03;5010928;28;20046;-62
2021/07/25 06:19:04;;;;;;;4.78;2.75;;;;;;;19.25;99.05;96122.22;5015617;28;20038;-61
2021/07/25 06:21:30;;;;;;;4.88;2.88;;;;;;;19.32;98.67;96130.34;5020957;28;20507;-62
2021/07/25 06:23:55;;;;;;;4.30;2.22;;;;;;;19.48;99.00;96121.94;5016876;28;20033;-62
2021/07/25 06:26:21;;;;;;;8.02;3.75;;;;;;;19.80;97.51;96122.28;5007081;28;20092;-63
2021/07/25 06:28:47;;;;;;;5.57;2.88;;;;;;;20.13;93.27;96113.75;4999483;28;20050;-62
2021/07/25 06:31:13;;;;;;;8.43;2.78;;;;;;;20.35;91.79;96111.88;4995056;28;20042;-63
2021/07/25 06:33:39;;;;;;;6.95;3.10;;;;;;;20.49;91.16;96116.19;5000045;28;20474;-62
2021/07/25 06:36:09;;;;;;;6.40;2.63;;;;;;;20.57;89.05;96119.53;4995917;28;20402;-63
2021/07/25 06:38:35;;;;;;;8.80;2.95;;;;;;;20.13;90.78;96127.63;5018071;28;20132;-62
2021/07/25 06:41:00;;;;;;;8.77;3.25;;;;;;;19.70;91.87;96140.78;5010368;28;20129;-62
2021/07/25 06:43:25;;;;;;;7.35;3.65;;;;;;;18.95;97.18;96138.03;5010727;28;20049;-62
2021/07/25 06:45:51;;;;;;;4.93;3.30;;;;;;;19.02;98.74;96140.63;5016895;28;20041;-63
2021/07/25 06:48:21;;;;;;;9.10;3.83;;;;;;;19.05;99.33;96130.63;5017625;28;20045;-65
2021/07/25 06:50:51;;;;;;;6.53;3.58;;;;;;;18.82;98.31;96137.19;5013647;28;20045;-62
2021/07/25 06:53:18;;;;;;;6.35;3.50;;;;;;;18.53;100.00;96148.97;5017769;28;20040;-63
2021/07/25 06:55:44;;;;;;;8.45;3.83;;;;;;;18.53;100.00;96148.97;5025724;28;20042;-62
2021/07/25 06:58:09;;;;;;;6.28;3.90;;;;;;;18.72;100.00;96139.75;4995811;28;20042;-64
2021/07/25 07:00:35;;;;;;;8.32;3.97;;;;;;;18.40;100.00;96134.22;5014873;28;20055;-63
2021/07/25 07:03:00;;;;;;;10.20;3.55;;;;;;;19.16;99.53;96120.06;5015366;28;20042;-63
2021/07/25 07:05:28;;;;;;;6.15;3.00;;;;;;;19.02;98.81;96110.09;5001771;28;20045;-63
2021/07/25 07:07:56;;;;;;;9.70;3.25;;;;;;;19.44;96.27;96118.47;5026752;28;20037;-63
2021/07/25 07:10:25;;;;;;;6.88;3.20;;;;;;;20.06;92.76;96114.75;5025601;28;20552;-62
2021/07/25 07:12:51;;;;;;;9.05;3.13;;;;;;;20.63;86.86;96114.97;5038470;28;20046;-63
2021/07/25 07:15:18;;;;;;;7.80;3.25;;;;;;;20.15;90.52;96114.88;5014273;28;20109;-63
2021/07/25 07:17:44;;;;;;;5.00;3.25;;;;;;;21.41;85.73;96104.38;5027771;28;20129;-63
2021/07/25 07:20:11;;;;;;;6.85;3.10;;;;;;;20.37;87.60;96100.28;5013674;28;20124;-62
2021/07/25 07:22:38;;;;;;;4.60;2.65;;;;;;;20.12;88.10;96101.84;5022953;28;20115;-62
2021/07/25 07:25:05;;;;;;;6.03;3.13;;;;;;;20.00;90.26;96108.19;5020138;28;20042;-63
2021/07/25 07:27:31;;;;;;;5.05;3.00;;;;;;;21.19;85.07;96114.28;5024081;28;20049;-64
2021/07/25 07:29:57;;;;;;;6.20;2.80;;;;;;;22.40;75.02;96117.81;5023561;28;20055;-62
2021/07/25 07:32:23;;;;;;;5.60;2.95;;;;;;;23.78;68.17;96125.59;5017888;28;20582;-63
2021/07/25 07:34:48;;;;;;;5.07;2.65;;;;;;;22.40;73.14;96132.56;5037714;28;20037;-63
2021/07/25 07:37:14;;;;;;;6.53;2.78;;;;;;;22.78;71.41;96125.06;5018276;28;20037;-63
2021/07/25 07:39:40;;;;;;;4.25;2.70;;;;;;;22.49;73.74;96127.00;5021827;28;20508;-61
2021/07/25 07:42:08;;;;;;;4.97;2.60;;;;;;;22.88;73.55;96132.22;5018584;28;20521;-62
2021/07/25 07:44:34;;;;;;;3.60;2.40;;;;;;;23.47;68.41;96130.13;5004729;28;20046;-63
2021/07/25 07:47:00;;;;;;;6.10;2.55;;;;;;;22.84;71.93;96129.56;4999614;28;20037;-63
2021/07/25 07:49:26;;;;;;;4.55;2.70;;;;;;;21.35;78.98;96123.66;4996949;28;20731;-61
2021/07/25 07:51:52;;;;;;;8.35;3.45;;;;;;;21.37;79.76;96118.41;5021939;28;20517;-63
2021/07/25 07:54:17;;;;;;;8.82;2.88;;;;;;;21.28;80.83;96110.75;5014812;28;20049;-64
2021/07/25 07:56:42;;;;;;;9.30;2.72;;;;;;;20.89;81.44;96117.72;5022785;28;20049;-63
2021/07/25 07:59:08;;;;;;;8.32;5.22;;;;;;;21.58;80.39;96128.81;5015407;28;20470;-62
2021/07/25 08:01:33;;;;;;;5.22;2.72;;;;;;;22.39;75.50;96130.22;5022008;28;20136;-62
2021/07/25 08:03:59;;;;;;;5.78;2.78;;;;;;;22.76;75.27;96131.13;5023009;28;20552;-62
2021/07/25 08:06:24;;;;;;;8.25;3.85;;;;;;;22.35;74.43;96146.34;5018000;28;20390;-62
2021/07/25 08:08:49;;;;;;;6.63;3.05;;;;;;;21.26;80.18;96148.66;5022501;28;20484;-61
2021/07/25 08:11:15;;;;;;;7.10;3.05;;;;;;;20.79;82.44;96156.56;5017876;28;20041;-62
2021/07/25 08:13:42;;;;;;;5.38;3.10;;;;;;;21.66;80.71;96145.28;5016997;28;20100;-62
2021/07/25 08:16:07;;;;;;;8.48;3.75;;;;;;;21.25;80.70;96150.69;4998028;28;20137;-63
2021/07/25 08:18:32;;;;;;;9.52;3.50;;;;;;;21.42;80.15;96150.50;5026579;28;20125;-63
2021/07/25 08:20:58;;;;;;;6.82;3.40;;;;;;;22.11;77.54;96153.16;5002352;28;20611;-63
2021/07/25 08:23:23;;;;;;;8.90;2.95;;;;;;;21.90;78.69;96157.53;4999364;28;21023;-63
2021/07/25 08:25:49;;;;;;;8.13;2.97;;;;;;;22.51;77.57;96162.84;5030824;28;20063;-63
2021/07/25 08:28:14;;;;;;;5.40;2.92;;;;;;;24.19;69.73;96159.72;5004904;28;20046;-63
2021/07/25 08:30:41;;;;;;;6.07;3.20;;;;;;;23.98;70.51;96167.81;5014295;28;20137;-64
2021/07/25 08:33:07;;;;;;;5.70;2.58;;;;;;;25.09;65.06;96159.00;5009313;28;20496;-64
2021/07/25 08:35:32;;;;;;;5.95;2.90;;;;;;;25.67;62.87;96159.69;5011410;28;20132;-64
2021/07/25 08:37:58;;;;;;;7.00;2.67;;;;;;;25.70;61.75;96158.75;5010704;28;20037;-63
2021/07/25 08:40:24;;;;;;;4.72;2.55;;;;;;;26.13;60.08;96155.72;5004837;28;20521;-63
2021/07/25 08:43:12;;;;;;;4.60;2.60;;;;;;;26.65;58.20;96144.03;5022046;28;20050;-64
2021/07/25 08:45:42;;;;;;;5.30;2.85;;;;;;;26.43;58.22;96147.25;5007235;28;20042;-64
2021/07/25 08:48:16;;;;;;;5.60;3.20;;;;;;;24.47;62.97;96151.22;5004487;28;20111;-64
2021/07/25 08:50:57;;;;;;;7.90;3.80;;;;;;;22.77;70.37;96143.81;5002325;28;20553;-63
2021/07/25 08:53:26;;;;;;;6.28;3.33;;;;;;;23.87;67.54;96139.56;4996527;28;20810;-63
2021/07/25 08:55:52;;;;;;;6.57;2.92;;;;;;;24.99;62.06;96135.91;5001942;28;20168;-64
2021/07/25 08:58:22;;;;;;;6.95;2.90;;;;;;;25.92;58.84;96127.50;5001030;28;20052;-65
2021/07/25 09:00:50;;;;;;;5.80;2.90;;;;;;;27.09;55.28;96117.84;5015312;28;20050;-63
2021/07/25 09:03:17;;;;;;;5.65;2.97;;;;;;;27.60;52.57;96113.63;4999570;28;20061;-63
2021/07/25 09:05:44;;;;;;;6.45;2.85;;;;;;;26.93;54.08;96121.22;5011459;28;20042;-63
2021/07/25 09:08:09;;;;;;;6.05;2.90;;;;;;;27.67;55.23;96115.22;5015497;28;20036;-63
2021/07/25 09:10:35;;;;;;;6.00;3.15;;;;;;;27.89;52.85;96109.03;5009914;28;20042;-63
2021/07/25 09:13:00;;;;;;;5.22;3.10;;;;;;;28.64;51.22;96112.00;5001174;28;20034;-63
2021/07/25 09:15:32;;;;;;;7.18;2.92;;;;;;;27.87;52.69;96117.19;5006091;28;20068;-63
2021/07/25 09:17:59;;;;;;;6.38;2.90;;;;;;;27.93;52.95;96120.09;5011592;28;20056;-65
2021/07/25 09:20:35;;;;;;;7.70;3.53;;;;;;;27.17;55.52;96123.81;5007562;28;20445;-63
2021/07/25 09:23:08;;;;;;;4.75;2.90;;;;;;;26.94;56.11;96125.56;5001783;28;20101;-62
2021/07/25 09:25:43;;;;;;;8.82;3.47;;;;;;;26.61;57.95;96123.81;5000750;28;20046;-63
2021/07/25 09:28:14;;;;;;;5.63;3.10;;;;;;;26.49;58.40;96125.66;4996453;28;20049;-62
2021/07/25 09:30:40;;;;;;;5.32;2.72;;;;;;;26.54;58.52;96122.16;5004809;28;20049;-64
2021/07/25 09:33:29;;;;;;;6.13;2.78;;;;;;;25.51;62.49;96115.28;5006871;28;20029;-62
2021/07/25 09:36:07;;;;;;;5.07;2.75;;;;;;;26.48;59.10;96124.88;5014937;28;20637;-63
2021/07/25 09:38:32;;;;;;;6.45;2.92;;;;;;;26.84;57.38;96122.88;5020100;28;20136;-64
2021/07/25 09:40:57;;;;;;;4.60;2.88;;;;;;;27.26;56.60;96126.47;5012658;28;20133;-63
2021/07/25 09:43:24;;;;;;;5.45;2.95;;;;;;;25.44;59.80;96138.09;5012232;28;20046;-63
2021/07/25 09:45:55;;;;;;;5.15;3.10;;;;;;;25.90;60.60;96130.03;5025718;28;20041;-63
2021/07/25 09:48:24;;;;;;;6.28;2.65;;;;;;;26.42;58.68;96126.06;5017528;28;20045;-63
2021/07/25 09:50:52;;;;;;;6.40;2.95;;;;;;;26.50;58.71;96127.19;5015529;28;20045;-63
2021/07/25 09:53:19;;;;;;;9.20;3.88;;;;;;;25.87;61.38;96130.22;5018630;28;20080;-63
2021/07/25 09:55:45;;;;;;;6.55;2.80;;;;;;;25.69;61.71;96133.97;5020988;28;20099;-62
2021/07/25 09:58:11;;;;;;;6.18;3.05;;;;;;;25.77;62.25;96137.97;5014915;28;20391;-62
2021/07/25 10:00:44;;;;;;;6.45;2.95;;;;;;;25.93;61.81;96148.75;5008287;28;20049;-64
2021/07/25 10:03:21;;;;;;;5.45;3.55;;;;;;;25.80;62.53;96144.63;5002881;28;20070;-64
2021/07/25 10:05:47;;;;;;;9.68;3.17;;;;;;;26.11;61.52;96139.34;5001473;28;20044;-63
2021/07/25 10:08:23;;;;;;;7.07;3.20;;;;;;;25.14;63.70;96155.56;5002948;28;20041;-64
2021/07/25 10:10:50;;;;;;;6.68;3.08;;;;;;;25.23;63.80;96151.94;5004675;28;20109;-63
2021/07/25 10:13:20;;;;;;;5.45;2.90;;;;;;;25.44;63.30;96146.50;5006413;28;20497;-63
2021/07/25 10:15:59;;;;;;;5.20;3.20;;;;;;;24.93;65.31;96140.59;5017638;28;20102;-63
2021/07/25 10:18:26;;;;;;;7.83;3.30;;;;;;;25.37;64.24;96139.22;5034852;28;20359;-63
2021/07/25 10:20:56;;;;;;;6.63;3.33;;;;;;;25.50;64.38;96147.41;5005949;28;20041;-65
2021/07/25 10:23:27;;;;;;;12.05;5.22;;;;;;;24.47;66.40;96151.22;4999567;28;20395;-63
2021/07/25 10:25:55;;;;;;;6.60;3.40;;;;;;;24.34;67.58;96151.41;5012212;28;20057;-65
2021/07/25 10:28:22;;;;;;;4.85;2.90;;;;;;;24.18;67.80;96149.75;5017247;28;20049;-62
2021/07/25 10:30:49;;;;;;;5.68;3.22;;;;;;;24.14;68.54;96149.94;5012477;28;20042;-64
2021/07/25 10:33:16;;;;;;;9.13;3.65;;;;;;;23.59;70.70;96141.63;5000265;28;20133;-63
2021/07/25 10:35:44;;;;;;;7.80;3.63;;;;;;;23.29;72.87;96150.44;5014413;28;20045;-63
2021/07/25 10:38:10;;;;;;;6.80;3.63;;;;;;;23.29;73.44;96144.88;5014415;28;20048;-63
2021/07/25 10:40:36;;;;;;;6.25;3.45;;;;;;;23.61;72.45;96141.94;5021826;28;20722;-63
2021/07/25 10:43:02;;;;;;;6.47;3.60;;;;;;;23.70;71.64;96143.91;5015155;28;20431;-63
2021/07/25 10:45:27;;;;;;;9.07;3.92;;;;;;;23.84;70.81;96144.09;5005622;28;20084;-63
2021/07/25 10:48:11;;;;;;;6.43;3.60;;;;;;;24.74;68.12;96145.53;5014892;28;20482;-63
2021/07/25 10:50:36;;;;;;;6.15;3.00;;;;;;;25.12;68.33;96148.88;5005791;28;20100;-63
2021/07/25 10:53:02;;;;;;;6.25;3.67;;;;;;;25.65;64.91;96148.19;4999435;28;20038;-63
2021/07/25 10:55:34;;;;;;;8.00;3.80;;;;;;;25.32;66.12;96145.50;5005667;28;20084;-62
2021/07/25 10:58:04;;;;;;;6.07;2.90;;;;;;;25.38;64.72;96141.53;5023971;28;20390;-64
2021/07/25 11:00:45;;;;;;;6.30;3.55;;;;;;;24.34;67.96;96135.41;5013811;28;20037;-63
2021/07/25 11:03:31;;;;;;;5.32;3.00;;;;;;;24.74;67.56;96128.72;4999044;28;20517;-62
2021/07/25 11:05:59;;;;;;;4.63;3.10;;;;;;;24.58;65.77;96137.53;5017687;28;20490;-62
2021/07/25 11:08:34;;;;;;;5.68;3.22;;;;;;;23.98;67.16;96134.25;5021852;28;20569;-64
2021/07/25 11:11:01;;;;;;;7.97;3.55;;;;;;;23.70;67.18;96144.72;5034897;28;20041;-62
2021/07/25 11:13:40;;;;;;;8.13;3.25;;;;;;;23.36;69.03;96143.78;5007241;28;20756;-63
2021/07/25 11:16:32;;;;;;;5.35;3.17;;;;;;;22.92;71.36;96135.63;5005664;28;20076;-61
2021/07/25 11:19:04;;;;;;;7.22;3.25;;;;;;;22.90;71.64;96135.31;5003386;28;20052;-63
2021/07/25 11:21:36;;;;;;;6.25;3.42;;;;;;;22.98;71.67;96136.59;5002779;28;20045;-63
2021/07/25 11:24:28;;;;;;;10.32;4.07;;;;;;;22.90;72.63;96149.28;5010795;28;20523;-62
2021/07/25 11:26:59;;;;;;;6.13;3.65;;;;;;;22.83;72.60;96155.16;4991540;28;20041;-63
2021/07/25 11:29:33;;;;;;;8.00;3.83;;;;;;;23.05;71.97;96155.09;5025007;28;20041;-62